METAR Data
IDs: Format: Raw Decoded Include TAF

Data at: 0101 UTC 20 Jul 2019

METAR for:KSUX (Sioux City/Day Fld, IA, US)
Text:KSUX 200052Z 19007KT 10SM CLR 32/27 A2968 RMK AO2 SLP040 T03170272
Temperature: 31.7°C ( 89°F)
Dewpoint: 27.2°C ( 81°F) [RH = 77%]
Pressure (altimeter):29.68 inches Hg (1005.2 mb) [Sea level pressure: 1004.0 mb]
Winds:from the S (190 degrees) at 8 MPH (7 knots; 3.6 m/s)
Visibility:10 or more sm (16+ km)
Ceiling:at least 12,000 feet AGL
Clouds:sky clear below 12,000 feet AGL